CW7842 Weather Reports


time (UTC)temp
C
wind
direction
speed
KPH
gust
KPH
rain 1hr
cm
rain 24hr
cm
rain mn
cm
humidity
%
barometer
mb
20190819050508 18 272 0.0 0.0 0.00 0.00 0.00 80 1014.3
20190819043508 19 272 0.0 0.0 0.00 0.00 0.00 80 1014.0
20190819040508 19 272 0.0 0.0 0.00 0.00 0.00 79 1014.1
20190819033508 19 272 0.0 0.0 0.00 0.00 0.00 79 1014.0
20190819023513 20 270 0.0 0.0 0.00 0.00 0.00 79 1013.8
20190819020512 20 270 0.0 0.0 0.00 0.00 0.00 78 1013.5
20190819013513 20 270 0.0 0.0 0.00 0.00 0.00 77 1013.3
20190819003513 20 288 0.0 8.0 0.00 0.00 0.00 77 1013.1
20190818223512 21 219 0.0 6.4 0.00 0.00 0.00 76 1011.5
20190818190512 24 297 1.6 16.1 0.00 0.03 0.03 63 1009.0
20190818180512 27 255 1.6 11.3 0.00 0.03 0.03 56 1007.9
20190818170512 28 274 0.0 11.3 0.00 0.03 0.03 56 1007.6
20190818163513 28 215 0.0 8.0 0.00 0.03 0.03 54 1007.5
20190818160512 29 256 0.0 9.7 0.00 0.03 0.03 52 1007.1
20190818153512 29 246 0.0 9.7 0.00 0.03 0.03 49 1007.0
20190818143512 30 271 1.6 11.3 0.00 0.03 0.03 50 1006.6
20190818133512 31 193 1.6 16.1 0.00 0.03 0.03 48 1006.7
20190818130512 30 214 1.6 14.5 0.00 0.03 0.03 48 1007.0
20190818120512 30 235 1.6 12.9 0.00 0.03 0.03 48 1006.8
20190818113512 30 241 0.0 0.0 0.00 0.03 0.03 49 1006.9
20190818103512 28 252 4.8 19.3 0.00 0.03 0.03 53 1007.3
20190818100512 27 186 3.2 12.9 0.00 0.03 0.03 58 1007.2
20190818093512 26 188 4.8 14.5 0.00 0.03 0.03 63 1007.3
20190818080512 22 212 4.8 11.3 0.00 0.03 0.03 74 1008.1
20190818070511 20 262 0.0 4.8 0.00 0.03 0.03 83 1008.3
20190818063512 18 205 0.0 0.0 0.00 0.03 0.03 91 1008.3
20190818060512 17 205 0.0 0.0 0.00 0.03 0.03 92 1008.4
20190818053511 17 205 0.0 0.0 0.00 0.03 0.03 93 1008.4